Time;durP1;ratioP1;P1;durP2;ratioP2;P2;SDS_P1;SDS_P2;PMS_P1;PMS_P2;Temp;Humidity;BMP_temperature;BMP_pressure;BME280_temperature;BME280_humidity;BME280_pressure;Samples;Min_cycle;Max_cycle;Signal;HPM_P1;HPM_P2
2022/05/07 00:01:07;;;;;;;17.20;4.45;;;;;;;12.52;100.00;101935.94;5071246;28;20050;-84
2022/05/07 00:03:34;;;;;;;18.65;4.20;;;;;;;11.74;100.00;101923.81;5072535;28;20051;-84
2022/05/07 00:06:01;;;;;;;11.68;2.72;;;;;;;12.68;100.00;101966.13;5072850;28;20397;-84
2022/05/07 00:08:28;;;;;;;23.83;3.83;;;;;;;12.23;100.00;101952.41;5073125;28;20055;-84
2022/05/07 00:10:55;;;;;;;18.40;3.83;;;;;;;12.63;100.00;101952.25;5071788;28;20131;-84
2022/05/07 00:13:22;;;;;;;15.00;2.80;;;;;;;12.90;100.00;101976.06;5072124;28;20391;-84
2022/05/07 00:18:34;;;;;;;13.45;3.05;;;;;;;12.62;100.00;101937.38;5073339;28;20051;-84
2022/05/07 00:21:01;;;;;;;13.07;3.33;;;;;;;12.73;100.00;101947.63;5071719;28;20054;-84
2022/05/07 00:23:27;;;;;;;19.17;3.38;;;;;;;12.69;100.00;101957.31;5071818;28;20056;-84
2022/05/07 00:25:54;;;;;;;18.55;3.70;;;;;;;12.45;100.00;101948.34;5073722;28;20551;-84
2022/05/07 00:28:21;;;;;;;18.58;3.25;;;;;;;12.66;100.00;101941.66;5072211;28;20066;-84
2022/05/07 00:30:48;;;;;;;19.65;3.70;;;;;;;12.73;100.00;101959.00;5071442;28;20047;-84
2022/05/07 00:33:14;;;;;;;19.75;4.38;;;;;;;12.38;100.00;101974.78;5071241;28;20406;-84
2022/05/07 00:35:41;;;;;;;20.35;3.30;;;;;;;12.24;100.00;101946.28;5071402;28;20055;-84
2022/05/07 00:38:08;;;;;;;22.95;3.90;;;;;;;12.19;100.00;101937.66;5071119;28;20055;-84
2022/05/07 00:40:36;;;;;;;13.20;2.47;;;;;;;12.53;100.00;101967.38;5072187;28;20059;-84
2022/05/07 00:43:03;;;;;;;15.93;3.50;;;;;;;12.10;100.00;101939.59;5072837;28;20052;-84
2022/05/07 00:45:30;;;;;;;15.63;4.03;;;;;;;12.30;100.00;101930.34;5071580;28;20052;-84
2022/05/07 00:47:57;;;;;;;19.85;4.57;;;;;;;11.89;100.00;101938.31;5070778;28;20048;-84
2022/05/07 00:53:09;;;;;;;14.25;3.28;;;;;;;12.58;100.00;101982.19;5072142;28;20048;-83
2022/05/07 00:55:37;;;;;;;15.75;3.55;;;;;;;12.11;100.00;101933.47;5072435;28;20064;-83
2022/05/07 00:58:04;;;;;;;27.13;5.82;;;;;;;12.03;100.00;101987.03;5072428;28;20047;-83
2022/05/07 01:00:31;;;;;;;16.25;3.20;;;;;;;12.22;100.00;101941.06;5070626;28;20094;-83
2022/05/07 01:02:58;;;;;;;24.40;3.95;;;;;;;12.30;100.00;101965.34;5070965;28;20056;-83
2022/05/07 01:05:25;;;;;;;25.63;5.15;;;;;;;12.07;100.00;101965.06;5071696;28;20055;-84
2022/05/07 01:07:51;;;;;;;18.88;4.32;;;;;;;11.75;100.00;101962.25;5070807;28;20123;-84
2022/05/07 01:10:18;;;;;;;17.02;3.55;;;;;;;12.21;100.00;101967.34;5071510;28;20054;-83
2022/05/07 01:12:46;;;;;;;18.08;3.97;;;;;;;12.21;100.00;101980.47;5070725;28;20055;-83
2022/05/07 01:15:12;;;;;;;17.33;3.80;;;;;;;11.98;100.00;101992.38;5072304;28;20047;-84
2022/05/07 01:17:39;;;;;;;19.50;3.25;;;;;;;11.81;100.00;101965.63;5061682;28;20059;-83
2022/05/07 01:20:09;;;;;;;18.15;3.60;;;;;;;11.63;100.00;101970.41;5083220;28;20048;-83
2022/05/07 01:22:36;;;;;;;22.35;3.28;;;;;;;11.79;100.00;101926.31;5068976;28;20143;-84
2022/05/07 01:25:04;;;;;;;22.30;2.72;;;;;;;12.20;100.00;101937.63;5070654;28;20439;-84
2022/05/07 01:27:31;;;;;;;17.60;2.90;;;;;;;12.46;100.00;101980.72;5070917;28;20484;-84
2022/05/07 01:29:58;;;;;;;21.50;3.65;;;;;;;12.41;100.00;101957.22;5067412;28;20060;-84
2022/05/07 01:32:26;;;;;;;17.85;3.30;;;;;;;12.31;100.00;101992.50;5056957;28;20049;-83
2022/05/07 01:34:53;;;;;;;12.38;3.17;;;;;;;12.55;100.00;101988.34;5065588;28;20589;-84
2022/05/07 01:37:20;;;;;;;19.77;2.90;;;;;;;12.21;100.00;101973.47;5061088;28;20055;-83
2022/05/07 01:39:47;;;;;;;21.45;4.22;;;;;;;12.23;100.00;101982.16;5057611;28;20049;-83
2022/05/07 01:42:14;;;;;;;13.20;2.70;;;;;;;12.43;100.00;101971.16;5059556;28;20788;-83
2022/05/07 01:44:41;;;;;;;13.85;3.22;;;;;;;12.38;100.00;102028.22;5062842;28;20466;-83
2022/05/07 01:49:53;;;;;;;20.92;3.95;;;;;;;12.37;100.00;102030.88;5061915;28;20052;-83
2022/05/07 01:52:20;;;;;;;17.00;3.38;;;;;;;12.01;100.00;102020.34;5060660;28;20049;-83
2022/05/07 01:54:46;;;;;;;18.10;3.42;;;;;;;12.31;100.00;102010.88;5061540;28;20053;-83
2022/05/07 01:57:13;;;;;;;20.98;3.15;;;;;;;11.87;100.00;101999.63;5061540;28;20581;-84
2022/05/07 01:59:40;;;;;;;24.20;3.83;;;;;;;12.17;100.00;102044.47;5062239;28;20135;-84
2022/05/07 02:02:07;;;;;;;15.57;3.53;;;;;;;11.95;100.00;101984.56;5064534;28;20131;-84
2022/05/07 02:04:34;;;;;;;24.08;4.57;;;;;;;12.19;100.00;102029.56;5072215;28;21033;-84
2022/05/07 02:07:01;;;;;;;16.10;3.40;;;;;;;12.06;100.00;102032.47;5070484;28;20383;-84
2022/05/07 02:09:27;;;;;;;13.02;2.85;;;;;;;12.10;100.00;102030.63;5069525;28;20045;-84
2022/05/07 02:11:54;;;;;;;18.80;3.83;;;;;;;11.75;100.00;102006.84;5069255;28;20052;-84
2022/05/07 02:14:21;;;;;;;17.90;4.55;;;;;;;11.97;100.00;102051.06;5069833;28;20079;-84
2022/05/07 02:16:48;;;;;;;15.95;2.92;;;;;;;12.12;100.00;102037.56;5067919;28;20060;-84
2022/05/07 02:19:15;;;;;;;16.17;3.03;;;;;;;12.22;100.00;102043.47;5051116;28;20399;-84
2022/05/07 02:21:41;;;;;;;23.25;3.53;;;;;;;11.86;100.00;102035.47;5065179;28;20070;-84
2022/05/07 02:24:08;;;;;;;16.77;2.83;;;;;;;11.71;100.00;102020.09;5070549;28;20382;-84
2022/05/07 02:26:35;;;;;;;17.33;2.95;;;;;;;11.89;100.00;102017.06;5070802;28;20049;-84
2022/05/07 02:29:02;;;;;;;17.67;3.83;;;;;;;11.69;100.00;102012.25;5069973;28;21057;-84
2022/05/07 02:31:29;;;;;;;13.50;2.60;;;;;;;11.72;100.00;102000.81;5069866;28;20071;-85
2022/05/07 02:33:56;;;;;;;24.95;4.32;;;;;;;11.72;100.00;102025.31;5067009;28;20044;-84
2022/05/07 02:36:22;;;;;;;20.80;4.60;;;;;;;11.43;100.00;102032.94;5049748;28;20045;-84
2022/05/07 02:38:49;;;;;;;18.33;3.20;;;;;;;11.74;100.00;102010.41;5054410;28;20146;-84
2022/05/07 02:44:02;;;;;;;15.85;3.70;;;;;;;11.49;100.00;102003.94;5054979;28;20163;-82
2022/05/07 02:46:29;;;;;;;14.73;3.70;;;;;;;11.09;100.00;101997.75;5056813;28;20045;-82
2022/05/07 02:48:56;;;;;;;20.30;4.25;;;;;;;11.56;100.00;102021.28;5076184;28;20530;-82
2022/05/07 02:51:23;;;;;;;17.10;3.83;;;;;;;11.74;100.00;102052.38;5075562;28;20131;-81
2022/05/07 02:53:50;;;;;;;19.80;3.70;;;;;;;11.41;100.00;102009.34;5075795;28;20071;-82
2022/05/07 02:56:16;;;;;;;14.88;3.00;;;;;;;11.50;100.00;102018.78;5074803;28;20048;-82
2022/05/07 02:58:43;;;;;;;15.68;3.03;;;;;;;11.90;100.00;102055.56;5075341;28;20045;-81
2022/05/07 03:01:10;;;;;;;14.65;3.92;;;;;;;11.88;100.00;102054.72;5074050;28;20087;-81
2022/05/07 03:03:37;;;;;;;14.85;2.90;;;;;;;11.53;100.00;102034.47;5075464;28;20056;-84
2022/05/07 03:06:03;;;;;;;21.55;3.88;;;;;;;11.55;100.00;102038.78;5074960;28;20051;-82
2022/05/07 03:08:30;;;;;;;18.10;3.25;;;;;;;11.88;100.00;102043.31;5075716;28;20051;-82
2022/05/07 03:10:58;;;;;;;18.17;3.65;;;;;;;11.68;100.00;102033.28;5074145;28;20044;-81
2022/05/07 03:13:25;;;;;;;27.30;4.13;;;;;;;11.58;100.00;102046.59;5055153;28;20044;-83
2022/05/07 03:15:52;;;;;;;16.85;3.72;;;;;;;11.87;100.00;102071.34;5053700;28;20767;-86
2022/05/07 03:18:19;;;;;;;16.40;3.00;;;;;;;11.61;100.00;102036.94;5069408;28;20091;-83
2022/05/07 03:20:46;;;;;;;18.85;3.08;;;;;;;11.61;100.00;102018.56;5073544;28;20051;-84
2022/05/07 03:23:13;;;;;;;21.65;2.78;;;;;;;12.14;100.00;102098.75;5073401;28;20463;-84
2022/05/07 03:25:39;;;;;;;17.38;3.63;;;;;;;11.60;100.00;102036.06;5074445;28;20049;-84
2022/05/07 03:28:07;;;;;;;23.95;3.38;;;;;;;11.54;100.00;102060.69;5072894;28;20055;-84
2022/05/07 03:30:33;;;;;;;14.30;3.00;;;;;;;11.48;100.00;102049.44;5072119;28;20059;-84
2022/05/07 03:33:00;;;;;;;20.60;3.92;;;;;;;11.71;100.00;102075.19;5074150;28;20057;-84
2022/05/07 03:35:28;;;;;;;12.75;2.80;;;;;;;11.34;100.00;102071.53;5073009;28;20059;-84
2022/05/07 03:37:55;;;;;;;18.05;3.13;;;;;;;11.67;100.00;102099.75;5074632;28;20083;-84
2022/05/07 03:40:22;;;;;;;18.50;3.45;;;;;;;11.72;100.00;102087.41;5073522;28;20103;-83
2022/05/07 03:42:49;;;;;;;13.57;3.22;;;;;;;11.48;100.00;102049.44;5072309;28;20056;-84
2022/05/07 03:45:16;;;;;;;13.93;3.03;;;;;;;11.65;100.00;102060.44;5074321;28;20862;-84
2022/05/07 03:47:42;;;;;;;15.82;3.03;;;;;;;11.99;100.00;102100.84;5071938;28;20049;-84
2022/05/07 03:50:09;;;;;;;14.07;2.80;;;;;;;11.54;100.00;102076.41;5063775;28;20055;-84
2022/05/07 03:55:21;;;;;;;13.23;2.08;;;;;;;11.31;100.00;102052.38;5062728;28;20124;-83
2022/05/07 03:57:48;;;;;;;13.38;3.03;;;;;;;11.34;100.00;102047.09;5052876;28;20546;-84
2022/05/07 04:00:15;;;;;;;9.75;2.42;;;;;;;11.66;100.00;102087.53;5053762;28;20056;-84
2022/05/07 04:02:41;;;;;;;11.90;2.42;;;;;;;11.54;100.00;102058.06;5059557;28;20078;-84
2022/05/07 04:05:08;;;;;;;14.35;2.72;;;;;;;11.36;100.00;102082.00;5073560;28;20048;-84
2022/05/07 04:07:36;;;;;;;11.68;2.58;;;;;;;11.42;100.00;102076.66;5072950;28;20406;-84
2022/05/07 04:10:03;;;;;;;12.30;2.40;;;;;;;11.73;100.00;102113.63;5072001;28;20058;-84
2022/05/07 04:12:31;;;;;;;13.98;2.40;;;;;;;11.33;100.00;102064.59;5072358;28;20056;-84
2022/05/07 04:15:01;;;;;;;21.88;3.10;;;;;;;11.33;100.00;102055.84;5071884;28;20051;-84
2022/05/07 04:17:28;;;;;;;14.85;3.35;;;;;;;11.55;100.00;102106.13;5072387;28;20123;-84
2022/05/07 04:19:55;;;;;;;16.48;2.85;;;;;;;11.45;100.00;102078.34;5072062;28;20471;-84
2022/05/07 04:22:22;;;;;;;11.82;2.67;;;;;;;11.52;100.00;102108.78;5072188;28;20056;-84
2022/05/07 04:24:48;;;;;;;11.40;2.45;;;;;;;11.36;100.00;102082.00;5071872;28;20398;-84
2022/05/07 04:27:15;;;;;;;14.75;2.95;;;;;;;11.67;100.00;102119.00;5072109;28;20496;-85
2022/05/07 04:29:42;;;;;;;14.82;3.25;;;;;;;11.37;100.00;102107.34;5071042;28;20071;-84
2022/05/07 04:32:09;;;;;;;12.45;3.00;;;;;;;11.65;100.00;102127.78;5068056;28;20052;-83
2022/05/07 04:34:35;;;;;;;10.75;2.30;;;;;;;11.52;100.00;102114.03;5071912;28;20501;-83
2022/05/07 04:37:02;;;;;;;14.80;2.33;;;;;;;11.46;100.00;102107.16;5071427;28;20056;-83
2022/05/07 04:39:30;;;;;;;11.02;2.40;;;;;;;11.33;100.00;102084.69;5073220;28;20040;-84
2022/05/07 04:41:57;;;;;;;11.15;2.03;;;;;;;11.73;100.00;102149.50;5071622;28;20048;-83
2022/05/07 04:44:24;;;;;;;16.38;2.65;;;;;;;11.34;100.00;102126.59;5071080;28;20466;-84
2022/05/07 04:46:51;;;;;;;11.95;2.63;;;;;;;11.50;100.00;102127.19;5052734;28;20052;-84
2022/05/07 04:49:22;;;;;;;11.25;3.00;;;;;;;11.28;100.00;102110.13;5051269;28;20495;-84
2022/05/07 04:51:50;;;;;;;13.23;3.08;;;;;;;11.82;100.00;102162.41;5065155;28;20062;-82
2022/05/07 04:54:21;;;;;;;9.00;2.10;;;;;;;11.86;100.00;102161.44;5073097;28;20464;-82
2022/05/07 04:56:49;;;;;;;10.60;2.58;;;;;;;11.84;100.00;102147.50;5071451;28;20058;-85
2022/05/07 04:59:17;;;;;;;7.57;2.13;;;;;;;12.09;100.00;102166.28;5070105;28;20048;-84
2022/05/07 05:01:45;;;;;;;17.90;2.70;;;;;;;12.18;100.00;102175.69;5065596;28;20128;-84
2022/05/07 05:04:13;;;;;;;13.20;2.05;;;;;;;12.10;100.00;102164.53;5071068;28;20049;-84
2022/05/07 05:06:40;;;;;;;10.85;2.53;;;;;;;11.93;100.00;102178.88;5072398;28;20398;-85
2022/05/07 05:09:08;;;;;;;15.75;3.28;;;;;;;12.17;100.00;102188.88;5070550;28;20399;-85
2022/05/07 05:11:35;;;;;;;10.52;2.28;;;;;;;12.14;100.00;102192.44;5069784;28;20048;-85
2022/05/07 05:15:01;;;;;;;15.38;2.88;;;;;;;12.27;100.00;102167.66;5070958;28;20052;-85
2022/05/07 05:16:50;;;;;;;17.52;2.85;;;;;;;12.32;100.00;102192.06;5072102;28;20062;-84
2022/05/07 05:19:18;;;;;;;10.45;2.15;;;;;;;12.28;100.00;102200.03;5072200;28;20628;-85
2022/05/07 05:21:45;;;;;;;13.52;2.22;;;;;;;12.09;100.00;102153.16;5071285;28;20048;-84
2022/05/07 05:24:12;;;;;;;14.55;3.40;;;;;;;12.00;100.00;102169.09;5072195;28;20139;-84
2022/05/07 05:26:39;;;;;;;15.23;2.47;;;;;;;12.39;100.00;102205.91;5072455;28;20135;-84
2022/05/07 05:29:06;;;;;;;11.18;3.05;;;;;;;12.05;100.00;102153.25;5071988;28;20058;-84
2022/05/07 05:31:33;;;;;;;12.45;2.90;;;;;;;12.30;100.00;102201.69;5071783;28;20048;-81
2022/05/07 05:34:00;;;;;;;12.30;2.30;;;;;;;12.25;100.00;102195.72;5070774;28;20055;-82
2022/05/07 05:36:27;;;;;;;13.43;2.90;;;;;;;12.28;100.00;102185.13;5072552;28;20493;-82
2022/05/07 05:38:54;;;;;;;17.23;2.83;;;;;;;12.34;100.00;102195.50;5072429;28;20047;-84
2022/05/07 05:41:21;;;;;;;12.32;2.63;;;;;;;12.49;100.00;102196.91;5069965;28;20136;-84
2022/05/07 05:43:48;;;;;;;11.70;3.17;;;;;;;12.47;100.00;102195.25;5072059;28;20394;-85
2022/05/07 05:46:15;;;;;;;14.80;2.78;;;;;;;12.30;100.00;102200.84;5071230;28;20048;-83
2022/05/07 05:48:42;;;;;;;12.45;2.42;;;;;;;12.19;100.00;102176.59;5071991;28;20076;-84
2022/05/07 05:51:09;;;;;;;14.05;2.90;;;;;;;12.48;100.00;102204.84;5071291;28;20417;-85
2022/05/07 05:53:36;;;;;;;11.20;2.38;;;;;;;12.82;100.00;102191.81;5070135;28;20049;-85
2022/05/07 05:56:03;;;;;;;14.68;2.53;;;;;;;12.88;100.00;102204.78;5063079;28;20053;-85
2022/05/07 05:58:33;;;;;;;19.83;3.38;;;;;;;12.68;100.00;102235.94;5050292;28;20056;-85
2022/05/07 06:01:01;;;;;;;20.33;3.15;;;;;;;12.35;100.00;102186.72;5065982;28;20497;-84
2022/05/07 06:03:28;;;;;;;15.85;3.35;;;;;;;12.55;100.00;102198.53;5051909;28;20049;-84
2022/05/07 06:05:54;;;;;;;14.27;2.42;;;;;;;12.58;100.00;102234.41;5051012;28;20045;-84
2022/05/07 06:08:21;;;;;;;13.07;3.53;;;;;;;12.53;100.00;102223.97;5050905;28;21135;-84
2022/05/07 06:10:54;;;;;;;14.93;2.05;;;;;;;12.80;100.00;102225.16;5056323;28;20050;-85
2022/05/07 06:13:21;;;;;;;13.45;2.60;;;;;;;12.75;100.00;102255.91;5070470;28;20946;-84
2022/05/07 06:15:51;;;;;;;14.27;2.50;;;;;;;12.91;100.00;102249.41;5072744;28;20060;-84
2022/05/07 06:18:22;;;;;;;11.57;2.70;;;;;;;13.17;100.00;102260.19;5071292;28;20461;-84
2022/05/07 06:20:49;;;;;;;11.18;2.58;;;;;;;13.19;100.00;102235.59;5068655;28;20095;-84
2022/05/07 06:23:16;;;;;;;18.35;2.72;;;;;;;13.09;100.00;102220.94;5061843;28;20059;-84
2022/05/07 06:28:29;;;;;;;10.77;2.47;;;;;;;12.88;100.00;102233.69;5072877;28;20055;-84
2022/05/07 06:30:55;;;;;;;18.80;3.95;;;;;;;12.42;100.00;102245.25;5069016;28;20040;-84
2022/05/07 06:33:22;;;;;;;16.35;3.40;;;;;;;13.05;100.00;102271.88;5067898;28;20053;-84
2022/05/07 06:35:49;;;;;;;16.38;3.38;;;;;;;12.68;100.00;102270.09;5069788;28;20048;-84
2022/05/07 06:38:16;;;;;;;12.10;2.95;;;;;;;13.11;100.00;102266.47;5068372;28;20041;-84
2022/05/07 06:40:43;;;;;;;15.63;3.13;;;;;;;13.39;100.00;102271.97;5074354;28;20493;-84
2022/05/07 06:43:10;;;;;;;17.17;3.40;;;;;;;13.10;100.00;102255.09;5072704;28;20040;-84
2022/05/07 06:45:37;;;;;;;19.90;3.55;;;;;;;13.07;100.00;102278.84;5065428;28;20052;-84
2022/05/07 06:48:08;;;;;;;15.82;2.45;;;;;;;13.20;100.00;102268.03;5071974;28;20490;-85
2022/05/07 06:50:35;;;;;;;19.08;3.72;;;;;;;13.27;100.00;102270.47;5063959;28;20094;-83
2022/05/07 06:53:02;;;;;;;18.63;3.58;;;;;;;13.61;100.00;102281.94;5073664;28;20478;-84
2022/05/07 06:55:32;;;;;;;20.30;4.45;;;;;;;12.84;95.26;102234.69;5073954;28;20045;-85
2022/05/07 06:57:59;;;;;;;16.13;3.10;;;;;;;13.67;91.21;102295.81;5068759;28;20044;-85
2022/05/07 07:00:46;;;;;;;17.83;3.05;;;;;;;13.70;89.05;102276.44;5071976;28;20052;-84
2022/05/07 07:03:16;;;;;;;16.38;3.50;;;;;;;13.26;89.03;102279.28;5058724;28;20124;-83
2022/05/07 07:05:47;;;;;;;13.88;2.80;;;;;;;13.60;87.63;102293.38;5053240;28;20059;-85
2022/05/07 07:08:14;;;;;;;17.25;2.92;;;;;;;13.53;83.85;102297.06;5053839;28;20052;-83
2022/05/07 07:10:42;;;;;;;9.02;2.25;;;;;;;14.13;81.87;102298.13;5057422;28;20402;-84
2022/05/07 07:13:11;;;;;;;18.23;3.22;;;;;;;13.52;83.70;102300.59;5072273;28;20053;-83
2022/05/07 07:15:41;;;;;;;15.43;3.50;;;;;;;14.03;81.66;102294.88;5057727;28;20059;-83
2022/05/07 07:18:11;;;;;;;14.38;2.92;;;;;;;13.88;77.76;102303.19;5086336;28;20052;-84
2022/05/07 07:20:43;;;;;;;14.65;3.20;;;;;;;13.97;76.80;102305.56;5058842;28;20094;-83
2022/05/07 07:23:13;;;;;;;23.23;3.33;;;;;;;14.29;74.56;102293.28;5072358;28;20053;-84
2022/05/07 07:25:41;;;;;;;16.52;2.70;;;;;;;13.89;74.66;102316.31;5073022;28;20415;-83
2022/05/07 07:28:11;;;;;;;14.43;2.80;;;;;;;14.15;74.44;102294.53;5073257;28;20049;-83
2022/05/07 07:30:39;;;;;;;13.00;2.65;;;;;;;14.22;71.21;102277.66;5072321;28;20051;-84
2022/05/07 07:33:07;;;;;;;17.25;3.28;;;;;;;14.37;72.08;102312.38;5073395;28;20425;-84
2022/05/07 07:35:34;;;;;;;11.93;2.42;;;;;;;14.14;68.96;102308.59;5074229;28;20048;-82
2022/05/07 07:38:01;;;;;;;13.60;3.22;;;;;;;13.90;69.91;102319.78;5072917;28;20044;-84
2022/05/07 07:40:31;;;;;;;13.68;3.15;;;;;;;14.17;73.11;102308.53;5071482;28;20044;-83
2022/05/07 07:42:58;;;;;;;14.18;2.67;;;;;;;14.95;71.50;102315.09;5073001;28;20041;-84
2022/05/07 07:48:10;;;;;;;12.05;2.55;;;;;;;14.35;67.99;102317.69;5072062;28;20067;-83
2022/05/07 07:50:38;;;;;;;11.93;2.83;;;;;;;14.07;70.09;102293.03;5072278;28;20072;-83
2022/05/07 07:53:09;;;;;;;10.88;2.20;;;;;;;15.19;66.84;102327.53;5054167;28;20086;-85
2022/05/07 07:55:38;;;;;;;15.40;2.55;;;;;;;15.48;65.33;102332.78;5066289;28;20082;-84
2022/05/07 07:58:09;;;;;;;12.43;2.80;;;;;;;14.75;65.58;102308.66;5072284;28;20048;-86
2022/05/07 08:00:37;;;;;;;9.60;2.20;;;;;;;15.20;67.54;102317.84;5071317;28;20051;-84
2022/05/07 08:03:09;;;;;;;13.75;2.55;;;;;;;15.14;64.37;102340.00;5064911;28;20052;-84
2022/05/07 08:05:36;;;;;;;11.43;2.77;;;;;;;13.94;61.35;102345.16;5059970;28;20547;-84
2022/05/07 08:13:40;;;;;;;12.48;2.90;;;;;;;15.45;63.50;102332.88;5072080;28;20414;-85
2022/05/07 08:16:08;;;;;;;15.27;3.13;;;;;;;15.63;61.97;102350.72;5070049;28;20052;-84
2022/05/07 08:18:36;;;;;;;15.93;3.28;;;;;;;14.80;62.90;102343.66;5071488;28;20079;-85
2022/05/07 08:21:06;;;;;;;11.50;2.90;;;;;;;14.78;63.67;102341.97;5071616;28;20044;-84
2022/05/07 08:23:33;;;;;;;13.52;2.70;;;;;;;14.90;63.66;102349.50;5059352;28;20087;-82
2022/05/07 08:26:02;;;;;;;11.00;2.53;;;;;;;15.05;64.13;102326.22;5061853;28;20446;-84
2022/05/07 08:28:33;;;;;;;12.98;2.38;;;;;;;15.80;62.76;102363.41;5071426;28;20049;-83
2022/05/07 08:31:00;;;;;;;9.38;2.08;;;;;;;15.99;60.88;102358.38;5059873;28;20047;-84
2022/05/07 08:33:29;;;;;;;13.52;3.38;;;;;;;15.68;60.10;102346.16;5062847;28;20053;-83
2022/05/07 08:35:55;;;;;;;15.82;2.47;;;;;;;15.80;61.04;102347.56;5071784;28;20055;-85
2022/05/07 08:38:26;;;;;;;13.73;2.90;;;;;;;15.49;60.52;102351.22;5071776;28;20543;-83
2022/05/07 08:40:53;;;;;;;11.60;2.60;;;;;;;15.26;60.39;102344.00;5068812;28;20040;-84
2022/05/07 08:43:22;;;;;;;12.63;2.78;;;;;;;15.71;58.94;102330.22;5071025;28;20608;-82
2022/05/07 08:45:55;;;;;;;13.25;3.42;;;;;;;14.94;60.98;102352.94;5069223;28;20049;-84
2022/05/07 08:48:22;;;;;;;15.52;3.75;;;;;;;15.56;59.93;102350.09;5051920;28;20132;-84
2022/05/07 08:50:53;;;;;;;13.23;2.90;;;;;;;15.29;59.38;102350.97;5067736;28;21322;-86
2022/05/07 08:53:21;;;;;;;12.88;2.40;;;;;;;15.31;60.81;102351.78;5052357;28;20487;-86
2022/05/07 08:55:54;;;;;;;17.00;2.88;;;;;;;14.89;59.76;102308.25;5071921;28;20053;-86
2022/05/07 08:58:21;;;;;;;12.45;2.55;;;;;;;15.38;60.44;102327.78;5061513;28;20096;-85
2022/05/07 09:00:48;;;;;;;9.60;2.28;;;;;;;15.96;59.24;102334.69;5082654;28;20047;-84
2022/05/07 09:03:18;;;;;;;12.65;2.53;;;;;;;16.32;57.12;102336.94;5084836;28;20053;-84
2022/05/07 09:05:45;;;;;;;14.63;2.55;;;;;;;16.13;56.79;102361.41;5071148;28;20504;-84
2022/05/07 09:08:12;;;;;;;14.77;2.78;;;;;;;16.82;56.84;102338.63;5060292;28;20041;-85
2022/05/07 09:10:43;;;;;;;9.98;2.92;;;;;;;16.58;57.53;102357.16;5068130;28;20079;-84
2022/05/07 09:13:13;;;;;;;15.32;2.60;;;;;;;16.63;56.03;102352.56;5090473;28;20497;-84
2022/05/07 09:15:59;;;;;;;15.00;3.50;;;;;;;16.08;57.03;102362.50;5060997;28;20044;-85
2022/05/07 09:18:28;;;;;;;13.93;3.05;;;;;;;16.11;55.95;102349.16;5063261;28;20059;-86
2022/05/07 09:21:16;;;;;;;15.50;2.42;;;;;;;16.64;56.27;102349.00;5061495;28;20041;-85
2022/05/07 09:24:08;;;;;;;11.63;2.50;;;;;;;16.55;55.97;102341.38;5067415;28;20600;-86
2022/05/07 09:26:39;;;;;;;11.40;2.40;;;;;;;16.55;54.92;102359.03;5070360;28;20063;-84
2022/05/07 09:29:13;;;;;;;14.73;2.80;;;;;;;16.19;57.31;102362.09;5068942;28;20127;-86
2022/05/07 09:31:42;;;;;;;11.52;2.40;;;;;;;16.14;57.89;102338.47;5067015;28;20048;-85
2022/05/07 09:37:11;;;;;;;15.05;3.38;;;;;;;16.18;55.45;102297.78;5067932;28;20054;-85
2022/05/07 09:39:38;;;;;;;12.45;3.35;;;;;;;15.93;54.67;102321.59;5071898;28;20055;-85
2022/05/07 09:42:08;;;;;;;14.85;2.90;;;;;;;15.68;55.47;102366.44;5070194;28;20410;-85
2022/05/07 09:44:35;;;;;;;17.52;3.22;;;;;;;15.64;55.67;102365.69;5071218;28;20494;-85
2022/05/07 09:47:03;;;;;;;10.95;1.95;;;;;;;16.21;55.55;102362.91;5064059;28;20052;-84
2022/05/07 09:49:33;;;;;;;14.20;2.72;;;;;;;16.37;54.70;102377.28;5057662;28;20103;-85
2022/05/07 09:52:03;;;;;;;17.42;3.15;;;;;;;16.14;55.95;102354.31;5070798;28;20055;-86
2022/05/07 09:57:33;;;;;;;8.77;2.05;;;;;;;16.81;52.83;102371.28;5071046;28;20060;-85
2022/05/07 10:00:07;;;;;;;9.88;2.03;;;;;;;17.31;52.84;102372.94;5054289;28;20053;-85
2022/05/07 10:03:10;;;;;;;11.65;2.10;;;;;;;16.45;52.75;102374.38;5064117;28;20053;-85
2022/05/07 10:05:40;;;;;;;15.07;2.85;;;;;;;15.92;53.67;102394.69;5063875;28;20052;-85
2022/05/07 10:08:28;;;;;;;9.60;2.53;;;;;;;16.54;53.64;102391.69;5069235;28;20055;-86
2022/05/07 10:10:56;;;;;;;13.52;2.50;;;;;;;16.96;53.95;102388.38;5066978;28;20482;-86
2022/05/07 10:13:23;;;;;;;9.23;2.58;;;;;;;15.83;53.46;102386.22;5070047;28;20367;-85
2022/05/07 10:16:23;;;;;;;8.88;2.03;;;;;;;16.66;53.03;102385.94;5069371;28;20061;-85
2022/05/07 10:18:50;;;;;;;15.52;2.42;;;;;;;16.72;52.99;102379.59;5042442;28;20056;-85
2022/05/07 10:21:18;;;;;;;12.23;2.25;;;;;;;16.71;53.22;102373.41;5063590;28;20510;-85
2022/05/07 10:23:56;;;;;;;15.07;2.80;;;;;;;16.50;52.73;102380.34;5069704;28;20048;-84
2022/05/07 10:26:40;;;;;;;10.55;2.35;;;;;;;15.86;53.42;102363.19;5070114;28;20080;-85
2022/05/07 10:29:07;;;;;;;14.73;3.05;;;;;;;15.44;55.85;102355.78;5070718;28;20418;-84
2022/05/07 10:31:46;;;;;;;13.05;3.00;;;;;;;16.03;56.58;102380.28;5069446;28;20393;-85
2022/05/07 10:34:26;;;;;;;10.57;2.45;;;;;;;16.54;55.52;102404.91;5071400;28;20105;-85
2022/05/07 10:37:06;;;;;;;16.88;3.10;;;;;;;15.85;58.72;102385.25;5070064;28;20048;-85
2022/05/07 10:39:36;;;;;;;10.10;2.47;;;;;;;15.95;60.96;102396.38;5069409;28;20052;-86
2022/05/07 10:42:27;;;;;;;12.30;2.45;;;;;;;15.82;60.52;102372.16;5068943;28;20060;-85
2022/05/07 10:44:54;;;;;;;16.08;3.10;;;;;;;15.15;62.26;102391.84;5056582;28;20057;-84
2022/05/07 10:47:21;;;;;;;11.20;2.50;;;;;;;15.55;61.33;102405.59;5060909;28;20088;-84
2022/05/07 10:50:06;;;;;;;16.35;2.83;;;;;;;14.69;64.47;102410.78;5060476;28;20049;-84
2022/05/07 10:52:34;;;;;;;15.35;2.90;;;;;;;15.00;64.14;102406.38;5056964;28;20045;-84
2022/05/07 10:55:12;;;;;;;11.65;2.75;;;;;;;14.94;64.98;102401.28;5058951;28;20044;-84
2022/05/07 10:57:44;;;;;;;15.70;3.15;;;;;;;15.17;64.17;102397.06;5063897;28;20136;-84
2022/05/07 11:00:15;;;;;;;15.60;3.53;;;;;;;15.09;64.73;102407.88;5063041;28;20048;-84
2022/05/07 11:02:43;;;;;;;11.98;3.17;;;;;;;15.65;63.64;102420.22;5062202;28;20277;-84
2022/05/07 11:05:11;;;;;;;14.48;3.25;;;;;;;14.41;64.78;102395.69;5065595;28;20059;-83
2022/05/07 11:07:39;;;;;;;15.02;2.95;;;;;;;15.10;65.13;102414.88;5061981;28;20080;-84
2022/05/07 11:10:10;;;;;;;11.15;4.30;;;;;;;15.88;66.32;102422.16;5069501;28;20045;-84
2022/05/07 11:12:39;;;;;;;13.65;3.17;;;;;;;15.80;64.35;102373.13;5082493;28;20083;-84
2022/05/07 11:15:09;;;;;;;19.38;2.72;;;;;;;16.03;63.06;102410.19;5072564;28;20056;-83
2022/05/07 11:17:40;;;;;;;11.25;2.47;;;;;;;15.90;63.36;102422.06;5071863;28;20056;-84
2022/05/07 11:20:10;;;;;;;10.38;2.50;;;;;;;15.57;63.99;102411.66;5072676;28;20048;-84
2022/05/07 11:22:39;;;;;;;12.32;2.28;;;;;;;16.21;62.75;102436.91;5071406;28;20053;-84
2022/05/07 11:25:08;;;;;;;14.57;2.55;;;;;;;15.87;63.03;102423.03;5071806;28;20040;-84
2022/05/07 11:27:35;;;;;;;9.73;2.13;;;;;;;15.87;62.97;102438.88;5072330;28;20086;-84
2022/05/07 11:30:04;;;;;;;12.55;2.90;;;;;;;15.49;62.20;102440.97;5057505;28;20589;-84
2022/05/07 11:32:40;;;;;;;14.18;3.22;;;;;;;15.53;63.33;102431.16;5072234;28;20056;-84
2022/05/07 11:35:08;;;;;;;12.80;3.03;;;;;;;15.22;62.85;102441.78;5073824;28;20059;-84
2022/05/07 11:37:40;;;;;;;11.40;2.17;;;;;;;15.50;62.09;102428.63;5072625;28;20062;-84
2022/05/07 11:40:10;;;;;;;19.08;2.85;;;;;;;15.44;62.52;102450.78;5071816;28;20127;-83
2022/05/07 11:42:46;;;;;;;12.57;2.72;;;;;;;15.08;63.64;102429.00;5072163;28;20059;-84
2022/05/07 11:45:29;;;;;;;13.73;2.70;;;;;;;15.44;63.05;102434.06;5070733;28;20098;-85
2022/05/07 11:48:11;;;;;;;14.02;2.45;;;;;;;15.30;64.71;102440.66;5064829;28;20055;-84
2022/05/07 11:50:41;;;;;;;20.40;3.95;;;;;;;15.42;63.74;102442.03;5071046;28;20045;-84